createdAt,value
2018-09-21T00:00:02.635Z,99949.58
2018-09-21T00:02:31.594Z,99945.77
2018-09-21T00:05:01.136Z,99946.05
2018-09-21T00:07:30.012Z,99938.43
2018-09-21T00:09:59.062Z,99941.20
2018-09-21T00:12:28.423Z,99939.76
2018-09-21T00:14:57.296Z,99935.88
2018-09-21T00:17:26.241Z,99941.51
2018-09-21T00:19:55.316Z,99932.36
2018-09-21T00:22:24.145Z,99933.25
2018-09-21T00:24:53.194Z,99939.84
2018-09-21T00:27:23.233Z,99935.62
2018-09-21T00:29:52.069Z,99936.66
2018-09-21T00:32:20.930Z,99940.10
2018-09-21T00:34:49.872Z,99938.03
2018-09-21T00:37:18.903Z,99939.63
2018-09-21T00:39:47.784Z,99938.03
2018-09-21T00:42:18.188Z,99935.77
2018-09-21T00:44:47.013Z,99936.09
2018-09-21T00:47:16.049Z,99928.80
2018-09-21T00:49:45.642Z,99931.57
2018-09-21T00:52:14.599Z,99925.58
2018-09-21T00:54:43.714Z,99927.13
2018-09-21T00:57:13.320Z,99920.50
2018-09-21T00:59:42.255Z,99921.11
2018-09-21T01:02:11.085Z,99914.67
2018-09-21T01:04:43.411Z,99914.38
2018-09-21T01:07:14.011Z,99917.73
2018-09-21T01:09:43.719Z,99923.91
2018-09-21T01:12:12.630Z,99919.06
2018-09-21T01:14:41.467Z,99924.13
2018-09-21T01:17:10.506Z,99924.17
2018-09-21T01:19:39.533Z,99927.23
2018-09-21T01:22:08.552Z,99925.34
2018-09-21T01:24:37.856Z,99932.13
2018-09-21T01:27:06.687Z,99933.09
2018-09-21T01:29:35.669Z,99932.36
2018-09-21T01:32:04.922Z,99937.22
2018-09-21T01:34:33.900Z,99927.36
2018-09-21T01:37:02.904Z,99931.45
2018-09-21T01:40:34.357Z,99935.55
2018-09-21T01:43:03.316Z,99939.82
2018-09-21T01:45:32.176Z,99934.40
2018-09-21T01:48:01.592Z,99935.45
2018-09-21T01:50:30.728Z,99931.08
2018-09-21T01:52:59.855Z,99925.66
2018-09-21T01:55:28.890Z,99930.50
2018-09-21T01:57:58.057Z,99931.73
2018-09-21T02:00:27.017Z,99927.84
2018-09-21T02:02:56.293Z,99931.63
2018-09-21T02:05:25.160Z,99923.38
2018-09-21T02:07:54.075Z,99929.02
2018-09-21T02:10:23.372Z,99926.36
2018-09-21T02:12:53.221Z,99927.00
2018-09-21T02:15:22.217Z,99924.75
2018-09-21T02:17:51.452Z,99923.90
2018-09-21T02:20:20.319Z,99924.92
2018-09-21T02:22:49.208Z,99926.36
2018-09-21T02:25:18.587Z,99918.48
2018-09-21T02:27:47.888Z,99926.84
2018-09-21T02:30:17.053Z,99924.55
2018-09-21T02:32:46.114Z,99924.75
2018-09-21T02:35:16.114Z,99919.60
2018-09-21T02:37:45.421Z,99920.83
2018-09-21T02:40:14.844Z,99923.38
2018-09-21T02:42:43.787Z,99930.61
2018-09-21T02:45:12.721Z,99925.13
2018-09-21T02:47:41.993Z,99926.56
2018-09-21T02:50:10.930Z,99923.70
2018-09-21T02:52:39.692Z,99920.56
2018-09-21T02:55:08.671Z,99927.89
2018-09-21T02:57:37.548Z,99926.56
2018-09-21T03:00:07.664Z,99922.68
2018-09-21T03:02:36.710Z,99927.05
2018-09-21T03:05:05.895Z,99923.80
2018-09-21T03:07:34.833Z,99926.67
2018-09-21T03:10:04.134Z,99922.38
2018-09-21T03:12:33.215Z,99923.16
2018-09-21T03:15:02.343Z,99926.47
2018-09-21T03:17:31.741Z,99929.80
2018-09-21T03:20:00.735Z,99929.16
2018-09-21T03:22:29.903Z,99932.84
2018-09-21T03:24:58.801Z,99932.36
2018-09-21T03:27:27.826Z,99931.92
2018-09-21T03:29:57.051Z,99928.48
2018-09-21T03:32:26.526Z,99929.16
2018-09-21T03:34:55.372Z,99928.20
2018-09-21T03:37:24.301Z,99928.67
2018-09-21T03:39:53.781Z,99928.95
2018-09-21T03:42:22.851Z,99931.61
2018-09-21T03:44:51.905Z,99927.83
2018-09-21T03:47:21.164Z,99927.35
2018-09-21T03:49:50.205Z,99928.38
2018-09-21T03:52:19.372Z,99930.01
2018-09-21T03:54:48.334Z,99927.45
2018-09-21T03:57:17.231Z,99926.70
2018-09-21T03:59:46.165Z,99932.02
2018-09-21T04:02:15.186Z,99926.88
2018-09-21T04:04:44.086Z,99929.26
2018-09-21T04:07:13.044Z,99931.71
2018-09-21T04:09:42.479Z,99933.69
2018-09-21T04:12:11.288Z,99941.50
2018-09-21T04:14:40.317Z,99936.93
2018-09-21T04:17:09.566Z,99941.67
2018-09-21T04:19:40.659Z,99949.09
2018-09-21T04:22:11.040Z,99942.25
2018-09-21T04:24:39.871Z,99939.96
2018-09-21T04:27:08.952Z,99942.25
2018-09-21T04:29:38.488Z,99941.30
2018-09-21T04:32:07.543Z,99938.27
2018-09-21T04:34:37.641Z,99944.87
2018-09-21T04:37:06.893Z,99937.84
2018-09-21T04:39:36.004Z,99946.84
2018-09-21T04:42:05.170Z,99945.98
2018-09-21T04:44:34.443Z,99941.94
2018-09-21T04:47:03.373Z,99949.23
2018-09-21T04:49:32.353Z,99936.65
2018-09-21T04:52:01.737Z,99947.68
2018-09-21T04:54:30.754Z,99951.23
2018-09-21T04:56:59.812Z,99947.84
2018-09-21T04:59:29.248Z,99953.25
2018-09-21T05:01:58.211Z,99947.97
2018-09-21T05:04:27.228Z,99952.52
2018-09-21T05:06:56.268Z,99953.97
2018-09-21T05:09:25.263Z,99950.76
2018-09-21T05:11:54.424Z,99952.76
2018-09-21T05:14:23.859Z,99957.76
2018-09-21T05:16:52.848Z,99960.42
2018-09-21T05:19:22.056Z,99962.83
2018-09-21T05:21:51.553Z,99957.46
2018-09-21T05:24:20.717Z,99961.13
2018-09-21T05:26:49.790Z,99958.24
2018-09-21T05:29:19.155Z,99952.27
2018-09-21T05:31:48.115Z,99948.87
2018-09-21T05:34:18.042Z,99951.38
2018-09-21T05:36:47.473Z,99946.19
2018-09-21T05:41:53.350Z,99950.54
2018-09-21T05:44:22.405Z,99950.28
2018-09-21T05:46:51.426Z,99945.27
2018-09-21T05:49:20.482Z,99946.28
2018-09-21T05:51:49.736Z,99947.76
2018-09-21T05:54:18.698Z,99946.50
2018-09-21T05:56:48.541Z,99952.09
2018-09-21T05:59:17.822Z,99953.29
2018-09-21T06:01:46.740Z,99957.84
2018-09-21T06:04:15.690Z,99947.59
2018-09-21T06:06:44.948Z,99948.69
2018-09-21T06:09:14.752Z,99949.94
2018-09-21T06:11:43.847Z,99943.14
2018-09-21T06:14:13.537Z,99948.43
2018-09-21T06:16:42.600Z,99945.33
2018-09-21T06:19:12.083Z,99943.81
2018-09-21T06:21:41.222Z,99954.70
2018-09-21T06:24:10.613Z,99954.34
2018-09-21T06:26:39.809Z,99949.41
2018-09-21T06:29:08.892Z,99947.95
2018-09-21T06:31:38.276Z,99947.22
2018-09-21T06:34:07.177Z,99949.65
2018-09-21T06:36:36.234Z,99947.91
2018-09-21T06:39:08.641Z,99941.94
2018-09-21T06:41:37.841Z,99940.70
2018-09-21T06:44:07.331Z,99939.78
2018-09-21T06:46:36.935Z,99943.31
2018-09-21T06:49:05.903Z,99942.32
2018-09-21T06:51:35.098Z,99940.22
2018-09-21T06:54:04.411Z,99938.19
2018-09-21T06:56:33.418Z,99934.59
2018-09-21T06:59:02.419Z,99933.20
2018-09-21T07:01:31.719Z,99940.31
2018-09-21T07:04:00.813Z,99945.63
2018-09-21T07:06:29.638Z,99941.67
2018-09-21T07:08:58.959Z,99948.78
2018-09-21T07:11:27.993Z,99947.35
2018-09-21T07:13:57.273Z,99951.33
2018-09-21T07:16:26.865Z,99941.47
2018-09-21T07:18:55.937Z,99936.55
2018-09-21T07:21:25.056Z,99941.08
2018-09-21T07:23:55.299Z,99938.82
2018-09-21T07:26:24.415Z,99941.28
2018-09-21T07:28:53.326Z,99941.30
2018-09-21T07:31:22.666Z,99936.16
2018-09-21T07:33:51.627Z,99933.75
2018-09-21T07:36:20.629Z,99933.75
2018-09-21T07:38:49.922Z,99938.08
2018-09-21T07:41:19.119Z,99937.49
2018-09-21T07:43:48.686Z,99943.75
2018-09-21T07:46:17.685Z,99943.51
2018-09-21T07:48:46.837Z,99948.39
2018-09-21T07:51:15.904Z,99941.95
2018-09-21T07:53:45.541Z,99936.80
2018-09-21T07:56:14.430Z,99935.16
2018-09-21T07:58:45.351Z,99927.84
2018-09-21T08:01:14.263Z,99926.92
2018-09-21T08:03:43.349Z,99934.08
2018-09-21T08:06:12.208Z,99928.14
2018-09-21T08:08:41.196Z,99922.70
2018-09-21T08:11:10.200Z,99916.16
2018-09-21T08:13:39.302Z,99915.16
2018-09-21T08:16:08.131Z,99910.47
2018-09-21T08:18:37.141Z,99914.81
2018-09-21T08:21:06.540Z,99920.05
2018-09-21T08:23:35.531Z,99919.52
2018-09-21T08:26:04.606Z,99921.91
2018-09-21T08:28:34.025Z,99925.78
2018-09-21T08:31:02.892Z,99914.25
2018-09-21T08:33:31.845Z,99909.77
2018-09-21T08:36:01.221Z,99911.28
2018-09-21T08:38:30.909Z,99910.44
2018-09-21T08:40:59.944Z,99903.95
2018-09-21T08:43:28.915Z,99907.72
2018-09-21T08:45:58.001Z,99904.38
2018-09-21T08:48:27.091Z,99909.33
2018-09-21T08:50:56.253Z,99902.45
2018-09-21T08:53:25.201Z,99902.23
2018-09-21T08:55:54.160Z,99898.98
2018-09-21T08:58:23.568Z,99889.61
2018-09-21T09:00:52.564Z,99893.63
2018-09-21T09:03:24.380Z,99895.86
2018-09-21T09:05:54.488Z,99894.50
2018-09-21T09:08:24.883Z,99882.98
2018-09-21T09:10:54.337Z,99885.02
2018-09-21T09:13:23.265Z,99886.39
2018-09-21T09:15:52.416Z,99883.20
2018-09-21T09:18:21.437Z,99884.54
2018-09-21T09:20:50.356Z,99879.94
2018-09-21T09:23:20.503Z,99873.02
2018-09-21T09:25:49.558Z,99873.63
2018-09-21T09:28:19.326Z,99874.39
2018-09-21T09:30:48.982Z,99865.13
2018-09-21T09:33:18.003Z,99859.21
2018-09-21T09:35:46.976Z,99856.30
2018-09-21T09:38:16.428Z,99860.68
2018-09-21T09:40:46.563Z,99852.96
2018-09-21T09:43:16.069Z,99856.19
2018-09-21T09:45:44.910Z,99840.22
2018-09-21T09:48:13.862Z,99849.28
2018-09-21T09:50:43.516Z,99845.53
2018-09-21T09:53:12.474Z,99838.27
2018-09-21T09:55:41.452Z,99836.22
2018-09-21T09:58:10.542Z,99832.83
2018-09-21T10:00:44.590Z,99841.81
2018-09-21T10:03:13.608Z,99841.98
2018-09-21T10:05:42.775Z,99836.37
2018-09-21T10:08:12.914Z,99831.98
2018-09-21T10:10:42.221Z,99828.28
2018-09-21T10:13:11.428Z,99830.14
2018-09-21T10:15:40.858Z,99828.39
2018-09-21T10:18:10.933Z,99827.05
2018-09-21T10:20:40.090Z,99825.18
2018-09-21T10:23:09.233Z,99822.47
2018-09-21T10:32:24.310Z,99813.00
2018-09-21T10:34:53.331Z,99810.23
2018-09-21T10:37:22.299Z,99810.12
2018-09-21T10:39:51.549Z,99802.83
2018-09-21T10:42:20.690Z,99797.02
2018-09-21T10:44:49.723Z,99798.95
2018-09-21T10:47:18.630Z,99798.41
2018-09-21T10:49:47.771Z,99792.69
2018-09-21T10:52:16.967Z,99782.32
2018-09-21T10:54:46.038Z,99782.28
2018-09-21T10:57:15.073Z,99777.52
2018-09-21T10:59:44.026Z,99786.13
2018-09-21T11:02:13.432Z,99768.03
2018-09-21T11:04:42.370Z,99775.94
2018-09-21T11:07:11.577Z,99772.05
2018-09-21T11:09:40.913Z,99772.33
2018-09-21T11:12:09.928Z,99768.12
2018-09-21T11:14:38.929Z,99761.71
2018-09-21T11:17:08.923Z,99760.27
2018-09-21T11:19:38.099Z,99754.25
2018-09-21T11:22:07.225Z,99754.78
2018-09-21T11:24:36.332Z,99743.85
2018-09-21T11:27:05.474Z,99748.56
2018-09-21T11:29:34.352Z,99748.84
2018-09-21T11:32:03.658Z,99751.18
2018-09-21T11:34:32.615Z,99748.38
2018-09-21T11:37:01.706Z,99738.22
2018-09-21T11:39:31.202Z,99744.09
2018-09-21T11:42:00.203Z,99728.61
2018-09-21T11:44:29.146Z,99734.58
2018-09-21T11:46:58.480Z,99728.94
2018-09-21T11:49:27.436Z,99728.69
2018-09-21T11:51:56.378Z,99727.72
2018-09-21T11:54:25.293Z,99723.98
2018-09-21T11:56:54.291Z,99720.61
2018-09-21T11:59:23.585Z,99718.02
2018-09-21T12:01:53.025Z,99720.31
2018-09-21T12:04:21.923Z,99719.39
2018-09-21T12:06:51.118Z,99727.94
2018-09-21T12:09:20.581Z,99715.69
2018-09-21T12:11:49.680Z,99709.35
2018-09-21T12:14:18.681Z,99708.39
2018-09-21T12:16:47.770Z,99711.52
2018-09-21T12:19:16.633Z,99704.75
2018-09-21T12:21:45.450Z,99705.64
2018-09-21T12:24:15.407Z,99693.41
2018-09-21T12:26:44.323Z,99705.95
2018-09-21T12:29:13.213Z,99702.53
2018-09-21T12:31:42.539Z,99699.77
2018-09-21T12:34:11.503Z,99692.98
2018-09-21T12:36:40.518Z,99692.81
2018-09-21T12:39:12.153Z,99689.46
2018-09-21T12:41:41.157Z,99686.11
2018-09-21T12:44:11.089Z,99689.77
2018-09-21T12:46:40.605Z,99690.94
2018-09-21T12:49:09.528Z,99690.70
2018-09-21T12:51:38.696Z,99683.70
2018-09-21T12:54:08.244Z,99676.92
2018-09-21T12:56:37.312Z,99680.34
2018-09-21T12:59:06.290Z,99679.64
2018-09-21T13:01:35.715Z,99676.03
2018-09-21T13:04:04.568Z,99668.69
2018-09-21T13:06:33.552Z,99671.78
2018-09-21T13:09:02.403Z,99677.16
2018-09-21T13:11:31.456Z,99682.42
2018-09-21T13:14:00.454Z,99673.23
2018-09-21T13:16:29.862Z,99667.33
2018-09-21T13:18:58.864Z,99658.00
2018-09-21T13:21:28.034Z,99667.97
2018-09-21T13:23:57.370Z,99664.73
2018-09-21T13:26:26.311Z,99663.70
2018-09-21T13:28:55.373Z,99653.44
2018-09-21T13:31:24.657Z,99660.28
2018-09-21T13:33:53.751Z,99652.65
2018-09-21T13:36:22.771Z,99663.25
2018-09-21T13:38:51.869Z,99655.55
2018-09-21T13:41:20.855Z,99645.22
2018-09-21T13:43:49.738Z,99649.83
2018-09-21T13:46:18.582Z,99657.70
2018-09-21T13:48:47.519Z,99646.17
2018-09-21T13:51:16.495Z,99644.84
2018-09-21T13:53:45.700Z,99650.64
2018-09-21T13:56:14.792Z,99650.12
2018-09-21T13:59:46.845Z,99650.18
2018-09-21T14:02:15.919Z,99641.85
2018-09-21T14:04:44.936Z,99649.60
2018-09-21T14:07:14.321Z,99647.02
2018-09-21T14:09:48.769Z,99640.98
2018-09-21T14:12:18.002Z,99646.70
2018-09-21T14:14:46.967Z,99644.86
2018-09-21T14:17:16.018Z,99638.30
2018-09-21T14:19:45.059Z,99646.70
2018-09-21T14:22:14.248Z,99646.20
2018-09-21T14:24:43.354Z,99637.79
2018-09-21T14:27:12.561Z,99648.31
2018-09-21T14:29:42.809Z,99641.98
2018-09-21T14:32:11.967Z,99634.77
2018-09-21T14:34:41.606Z,99634.57
2018-09-21T14:37:10.581Z,99640.31
2018-09-21T14:39:39.736Z,99639.88
2018-09-21T14:42:09.069Z,99637.97
2018-09-21T14:44:37.995Z,99639.14
2018-09-21T14:47:07.363Z,99645.48
2018-09-21T14:49:36.944Z,99633.66
2018-09-21T14:52:05.846Z,99630.76
2018-09-21T14:54:34.809Z,99633.72
2018-09-21T14:57:03.905Z,99628.52
2018-09-21T14:59:33.085Z,99626.25
2018-09-21T15:02:02.000Z,99628.97
2018-09-21T15:04:31.102Z,99626.38
2018-09-21T15:07:00.054Z,99622.19
2018-09-21T15:09:29.651Z,99625.28
2018-09-21T15:11:58.784Z,99618.13
2018-09-21T15:14:27.716Z,99619.55
2018-09-21T15:16:56.569Z,99625.47
2018-09-21T15:19:25.569Z,99626.69
2018-09-21T15:21:54.697Z,99626.08
2018-09-21T15:24:23.700Z,99625.52
2018-09-21T15:26:53.131Z,99625.89
2018-09-21T15:29:22.054Z,99629.27
2018-09-21T15:31:51.084Z,99628.34
2018-09-21T15:34:20.392Z,99624.55
2018-09-21T15:36:49.392Z,99628.61
2018-09-21T15:39:18.490Z,99625.72
2018-09-21T15:41:48.654Z,99623.38
2018-09-21T15:44:17.666Z,99624.18
2018-09-21T15:46:46.816Z,99629.16
2018-09-21T15:49:16.261Z,99629.65
2018-09-21T15:51:45.403Z,99628.19
2018-09-21T15:54:14.509Z,99626.17
2018-09-21T15:56:43.983Z,99630.09
2018-09-21T15:59:13.022Z,99625.19
2018-09-21T16:01:42.134Z,99631.88
2018-09-21T16:04:11.885Z,99630.52
2018-09-21T16:06:40.865Z,99638.64
2018-09-21T16:09:09.818Z,99633.44
2018-09-21T16:11:39.409Z,99627.39
2018-09-21T16:14:08.691Z,99627.75
2018-09-21T16:16:38.514Z,99633.02
2018-09-21T16:19:07.623Z,99632.85
2018-09-21T16:21:36.780Z,99633.91
2018-09-21T16:24:06.378Z,99633.91
2018-09-21T16:26:35.226Z,99640.36
2018-09-21T16:29:05.818Z,99646.44
2018-09-21T16:31:34.927Z,99644.75
2018-09-21T16:34:03.906Z,99652.70
2018-09-21T16:36:32.832Z,99647.61
2018-09-21T16:39:03.290Z,99652.16
2018-09-21T16:41:32.332Z,99649.13
2018-09-21T16:44:01.334Z,99645.42
2018-09-21T16:47:33.254Z,99648.95
2018-09-21T16:50:02.280Z,99646.91
2018-09-21T16:52:31.285Z,99642.70
2018-09-21T16:55:00.576Z,99649.75
2018-09-21T16:57:29.610Z,99654.79
2018-09-21T16:59:58.809Z,99658.91
2018-09-21T17:02:27.931Z,99661.05
2018-09-21T17:04:57.138Z,99662.31
2018-09-21T17:07:26.022Z,99664.61
2018-09-21T17:09:55.050Z,99665.35
2018-09-21T17:12:24.226Z,99665.63
2018-09-21T17:14:53.200Z,99673.66
2018-09-21T17:17:22.645Z,99670.90
2018-09-21T17:19:51.506Z,99670.02
2018-09-21T17:22:20.451Z,99668.95
2018-09-21T17:24:49.368Z,99670.77
2018-09-21T17:27:18.488Z,99667.19
2018-09-21T17:29:47.456Z,99676.75
2018-09-21T17:32:16.425Z,99673.81
2018-09-21T17:34:45.545Z,99682.16
2018-09-21T17:37:14.738Z,99682.27
2018-09-21T17:39:43.821Z,99688.31
2018-09-21T17:43:15.324Z,99693.29
2018-09-21T17:45:44.494Z,99687.72
2018-09-21T17:48:13.378Z,99688.03
2018-09-21T17:50:42.284Z,99695.27
2018-09-21T17:53:11.777Z,99697.73
2018-09-21T17:55:40.700Z,99695.45
2018-09-21T17:58:09.521Z,99698.33
2018-09-21T18:00:39.867Z,99695.32
2018-09-21T18:03:08.767Z,99697.52
2018-09-21T18:05:37.750Z,99700.17
2018-09-21T18:08:07.167Z,99703.81
2018-09-21T18:10:36.118Z,99707.12
2018-09-21T18:13:05.217Z,99707.19
2018-09-21T18:15:34.374Z,99709.97
2018-09-21T18:18:03.353Z,99710.97
2018-09-21T18:20:32.539Z,99713.04
2018-09-21T18:23:01.562Z,99713.82
2018-09-21T18:25:30.725Z,99718.91
2018-09-21T18:27:59.859Z,99717.46
2018-09-21T18:30:29.067Z,99720.11
2018-09-21T18:32:58.273Z,99723.27
2018-09-21T18:35:27.248Z,99729.91
2018-09-21T18:37:56.693Z,99727.98
2018-09-21T18:40:25.533Z,99729.77
2018-09-21T18:42:54.521Z,99733.87
2018-09-21T18:45:23.473Z,99729.80
2018-09-21T18:47:52.676Z,99731.57
2018-09-21T18:50:21.843Z,99731.10
2018-09-21T18:52:51.426Z,99737.50
2018-09-21T18:55:20.413Z,99743.14
2018-09-21T18:57:49.371Z,99734.45
2018-09-21T19:00:18.792Z,99750.22
2018-09-21T19:02:47.849Z,99744.56
2018-09-21T19:05:16.900Z,99746.62
2018-09-21T19:07:46.176Z,99740.84
2018-09-21T19:10:16.032Z,99745.17
2018-09-21T19:12:44.973Z,99750.75
2018-09-21T19:15:13.989Z,99751.66
2018-09-21T19:17:43.079Z,99758.26
2018-09-21T19:20:12.091Z,99756.91
2018-09-21T19:22:42.160Z,99755.28
2018-09-21T19:25:11.039Z,99754.20
2018-09-21T19:27:40.032Z,99759.98
2018-09-21T19:30:09.941Z,99758.64
2018-09-21T19:32:38.990Z,99747.14
2018-09-21T19:35:07.902Z,99757.64
2018-09-21T19:37:37.330Z,99760.83
2018-09-21T19:40:06.471Z,99763.51
2018-09-21T19:42:35.363Z,99756.19
2018-09-21T19:45:04.657Z,99756.69
2018-09-21T19:47:33.603Z,99760.27
2018-09-21T19:50:02.695Z,99757.67
2018-09-21T19:52:32.308Z,99752.34
2018-09-21T19:55:01.240Z,99757.20
2018-09-21T19:57:30.151Z,99761.71
2018-09-21T20:00:00.618Z,99762.70
2018-09-21T20:02:29.465Z,99763.63
2018-09-21T20:04:58.529Z,99758.91
2018-09-21T20:07:27.756Z,99760.20
2018-09-21T20:09:56.785Z,99755.53
2018-09-21T20:12:25.797Z,99756.31
2018-09-21T20:14:54.947Z,99761.09
2018-09-21T20:17:23.909Z,99767.66
2018-09-21T20:19:52.965Z,99767.43
2018-09-21T20:22:22.241Z,99766.49
2018-09-21T20:24:51.104Z,99761.88
2018-09-21T20:27:20.033Z,99769.72
2018-09-21T20:29:49.111Z,99768.66
2018-09-21T20:32:23.178Z,99765.94
2018-09-21T20:34:52.302Z,99770.81
2018-09-21T20:37:21.425Z,99771.16
2018-09-21T20:39:50.469Z,99764.67
2018-09-21T20:42:19.596Z,99761.03
2018-09-21T20:44:48.634Z,99761.84
2018-09-21T20:47:17.910Z,99763.39
2018-09-21T20:49:46.865Z,99756.66
2018-09-21T20:52:15.813Z,99766.57
2018-09-21T20:54:45.139Z,99769.45
2018-09-21T20:57:13.929Z,99769.30
2018-09-21T20:59:43.061Z,99767.85
2018-09-21T21:02:12.062Z,99764.63
2018-09-21T21:04:40.895Z,99762.50
2018-09-21T21:07:09.326Z,99767.30
2018-09-21T21:09:38.417Z,99767.69
2018-09-21T21:12:07.333Z,99768.75
2018-09-21T21:14:36.213Z,99774.20
2018-09-21T21:17:05.769Z,99769.14
2018-09-21T21:19:34.738Z,99773.57
2018-09-21T21:22:03.858Z,99764.96
2018-09-21T21:24:33.237Z,99770.75
2018-09-21T21:27:02.115Z,99766.89
2018-09-21T21:29:31.349Z,99770.01
2018-09-21T21:32:00.304Z,99769.08
2018-09-21T21:34:29.199Z,99766.16
2018-09-21T21:36:58.105Z,99765.18
2018-09-21T21:39:27.391Z,99767.86
2018-09-21T21:41:56.232Z,99759.27
2018-09-21T21:44:25.357Z,99758.11
2018-09-21T21:46:54.666Z,99762.00
2018-09-21T21:49:23.532Z,99764.74
2018-09-21T21:51:52.533Z,99765.86
2018-09-21T21:54:21.957Z,99763.58
2018-09-21T21:56:50.876Z,99767.34
2018-09-21T21:59:20.129Z,99763.95
2018-09-21T22:01:50.042Z,99767.87
2018-09-21T22:04:19.440Z,99766.67
2018-09-21T22:06:48.648Z,99765.23
2018-09-21T22:09:17.589Z,99770.31
2018-09-21T22:12:54.459Z,99770.10
2018-09-21T22:15:23.881Z,99771.47
2018-09-21T22:17:52.917Z,99771.83
2018-09-21T22:20:21.979Z,99778.78
2018-09-21T22:22:51.012Z,99772.84
2018-09-21T22:25:19.836Z,99778.20
2018-09-21T22:27:48.825Z,99777.70
2018-09-21T22:30:17.938Z,99781.73
2018-09-21T22:32:46.898Z,99779.19
2018-09-21T22:35:15.821Z,99777.95
2018-09-21T22:37:44.796Z,99775.05
2018-09-21T22:40:13.900Z,99771.91
2018-09-21T22:42:43.057Z,99774.34
2018-09-21T22:45:12.013Z,99769.97
2018-09-21T22:47:41.007Z,99766.81
2018-09-21T22:50:10.048Z,99765.97
2018-09-21T22:52:39.040Z,99769.73
2018-09-21T22:55:08.083Z,99765.97
2018-09-21T22:57:37.109Z,99767.43
2018-09-21T23:00:06.541Z,99766.56
2018-09-21T23:02:35.448Z,99763.41
2018-09-21T23:05:04.540Z,99761.35
2018-09-21T23:07:33.402Z,99764.75
2018-09-21T23:10:02.428Z,99769.97
2018-09-21T23:12:31.496Z,99770.20
2018-09-21T23:15:00.586Z,99766.45
2018-09-21T23:17:29.585Z,99764.86
2018-09-21T23:19:58.422Z,99761.60
2018-09-21T23:22:27.346Z,99760.62
2018-09-21T23:24:56.206Z,99760.48
2018-09-21T23:27:25.063Z,99767.30
2018-09-21T23:29:54.469Z,99767.15
2018-09-21T23:32:23.337Z,99762.78
2018-09-21T23:34:52.236Z,99767.70
2018-09-21T23:37:21.232Z,99765.69
2018-09-21T23:39:50.117Z,99766.42
2018-09-21T23:42:18.993Z,99762.84
2018-09-21T23:44:47.897Z,99767.70
2018-09-21T23:47:16.822Z,99767.46
2018-09-21T23:49:45.659Z,99765.16
2018-09-21T23:52:14.944Z,99765.02
2018-09-21T23:54:44.234Z,99767.78
2018-09-21T23:57:13.276Z,99765.44
2018-09-21T23:59:42.381Z,99763.83
